createdAt,value
2024-04-30T00:00:14.090Z,6.43
2024-04-30T00:02:43.847Z,6.93
2024-04-30T00:05:13.640Z,6.93
2024-04-30T00:07:40.786Z,7.17
2024-04-30T00:10:10.932Z,6.80
2024-04-30T00:12:39.321Z,6.13
2024-04-30T00:15:09.795Z,6.60
2024-04-30T00:17:36.951Z,6.83
2024-04-30T00:20:10.538Z,6.87
2024-04-30T00:22:37.899Z,6.70
2024-04-30T00:25:07.843Z,6.77
2024-04-30T00:27:34.962Z,7.23
2024-04-30T00:30:04.643Z,6.93
2024-04-30T00:32:31.826Z,6.50
2024-04-30T00:35:01.566Z,6.67
2024-04-30T00:37:31.465Z,7.03
2024-04-30T00:40:01.401Z,6.80
2024-04-30T00:42:28.549Z,6.40
2024-04-30T00:44:58.255Z,7.50
2024-04-30T00:47:25.404Z,6.67
2024-04-30T00:49:55.136Z,7.03
2024-04-30T00:52:22.431Z,7.30
2024-04-30T00:54:54.799Z,7.30
2024-04-30T00:57:21.920Z,6.60
2024-04-30T00:59:51.687Z,6.80
2024-04-30T01:02:18.822Z,7.17
2024-04-30T01:04:49.035Z,6.77
2024-04-30T01:07:16.170Z,6.83
2024-04-30T01:09:45.856Z,7.53
2024-04-30T01:12:15.597Z,6.60
2024-04-30T01:14:45.296Z,7.07
2024-04-30T01:17:12.499Z,6.93
2024-04-30T01:19:42.216Z,6.97
2024-04-30T01:22:09.498Z,7.57
2024-04-30T01:24:41.884Z,6.60
2024-04-30T01:27:08.962Z,7.30
2024-04-30T01:29:38.641Z,7.33
2024-04-30T01:32:06.786Z,6.57
2024-04-30T01:34:39.052Z,6.93
2024-04-30T01:37:06.257Z,7.63
2024-04-30T01:39:35.998Z,7.60
2024-04-30T01:42:06.488Z,7.03
2024-04-30T01:44:36.183Z,6.97
2024-04-30T01:47:03.351Z,6.77
2024-04-30T01:49:33.206Z,6.77
2024-04-30T01:52:00.395Z,6.87
2024-04-30T01:54:30.241Z,7.10
2024-04-30T01:56:57.466Z,7.80
2024-04-30T01:59:29.761Z,7.33
2024-04-30T02:01:59.498Z,6.63
2024-04-30T02:04:27.314Z,7.23
2024-04-30T02:06:58.642Z,7.30
2024-04-30T02:09:25.797Z,6.63
2024-04-30T02:11:55.458Z,7.47
2024-04-30T02:14:22.736Z,7.40
2024-04-30T02:16:55.065Z,8.17
2024-04-30T02:19:22.214Z,7.37
2024-04-30T02:21:51.938Z,7.33
2024-04-30T02:24:19.196Z,8.37
2024-04-30T02:26:48.904Z,7.63
2024-04-30T02:29:15.999Z,7.27
2024-04-30T02:32:01.502Z,6.60
2024-04-30T02:34:34.263Z,7.07
2024-04-30T02:37:04.020Z,7.33
2024-04-30T02:39:33.986Z,7.30
2024-04-30T02:42:03.684Z,7.40
2024-04-30T02:44:31.695Z,6.77
2024-04-30T02:47:01.468Z,7.47
2024-04-30T02:49:31.315Z,7.43
2024-04-30T02:52:01.216Z,7.27
2024-04-30T02:54:28.526Z,7.97
2024-04-30T02:56:58.401Z,7.27
2024-04-30T02:59:25.634Z,8.30
2024-04-30T03:01:55.445Z,7.67
2024-04-30T03:04:22.719Z,7.27
2024-04-30T03:06:55.054Z,7.60
2024-04-30T03:09:22.159Z,7.73
2024-04-30T03:11:53.099Z,8.43
2024-04-30T03:14:20.206Z,7.93
2024-04-30T03:16:49.919Z,7.23
2024-04-30T03:19:17.081Z,7.60
2024-04-30T03:21:48.058Z,7.23
2024-04-30T03:24:17.816Z,7.20
2024-04-30T03:26:47.590Z,7.43
2024-04-30T03:29:14.705Z,7.40
2024-04-30T03:31:44.389Z,7.40
2024-04-30T03:34:11.490Z,7.57
2024-04-30T03:36:41.232Z,7.13
2024-04-30T03:39:11.032Z,7.30
2024-04-30T03:41:43.603Z,7.40
2024-04-30T03:44:13.618Z,7.13
2024-04-30T03:46:44.314Z,7.60
2024-04-30T03:49:11.558Z,8.10
2024-04-30T03:51:41.286Z,7.93
2024-04-30T03:54:08.388Z,8.83
2024-04-30T03:56:38.377Z,7.90
2024-04-30T03:59:08.760Z,8.53
2024-04-30T04:01:38.566Z,8.97
2024-04-30T04:04:05.824Z,8.90
2024-04-30T04:06:35.828Z,9.20
2024-04-30T04:09:02.934Z,9.47
2024-04-30T04:11:44.995Z,8.47
2024-04-30T04:14:32.618Z,8.17
2024-04-30T04:17:02.411Z,10.13
2024-04-30T04:19:32.579Z,9.87
2024-04-30T04:22:02.336Z,9.27
2024-04-30T04:24:29.562Z,9.17
2024-04-30T04:26:59.230Z,9.20
2024-04-30T04:29:28.960Z,8.90
2024-04-30T04:32:00.731Z,8.70
2024-04-30T04:34:28.327Z,9.43
2024-04-30T04:36:58.142Z,8.53
2024-04-30T04:39:25.356Z,8.70
2024-04-30T04:41:55.026Z,9.00
2024-04-30T04:44:22.133Z,9.10
2024-04-30T04:46:54.448Z,7.70
2024-04-30T04:49:21.895Z,8.87
2024-04-30T04:51:51.622Z,8.57
2024-04-30T04:54:18.762Z,8.73
2024-04-30T04:56:48.470Z,8.50
2024-04-30T04:59:15.562Z,7.97
2024-04-30T05:01:45.445Z,8.97
2024-04-30T05:04:15.337Z,7.63
2024-04-30T05:06:45.815Z,8.57
2024-04-30T05:09:12.993Z,8.13
2024-04-30T05:11:42.731Z,8.60
2024-04-30T05:14:09.856Z,7.43
2024-04-30T05:16:39.659Z,8.43
2024-04-30T05:19:06.915Z,7.53
2024-04-30T05:21:39.204Z,8.13
2024-04-30T05:24:06.505Z,7.90
2024-04-30T05:26:36.180Z,8.30
2024-04-30T05:29:03.278Z,7.37
2024-04-30T05:31:33.006Z,6.53
2024-04-30T05:34:02.256Z,6.57
2024-04-30T05:36:32.004Z,6.23
2024-04-30T05:39:04.310Z,6.73
2024-04-30T05:41:31.430Z,6.27
2024-04-30T05:44:01.193Z,5.60
2024-04-30T05:46:28.484Z,5.60
2024-04-30T05:48:58.582Z,5.80
2024-04-30T05:51:26.374Z,5.13
2024-04-30T05:53:56.677Z,5.00
2024-04-30T05:56:26.578Z,5.50
2024-04-30T05:58:56.317Z,4.97
2024-04-30T06:01:23.655Z,4.90
2024-04-30T06:03:53.444Z,4.80
2024-04-30T06:06:21.784Z,5.00
2024-04-30T06:08:51.531Z,4.60
2024-04-30T06:11:18.747Z,4.43
2024-04-30T06:13:51.133Z,4.30
2024-04-30T06:16:18.310Z,5.10
2024-04-30T06:18:48.182Z,4.27
2024-04-30T06:21:19.897Z,4.53
2024-04-30T06:23:53.516Z,4.40
2024-04-30T06:26:20.711Z,3.93
2024-04-30T06:28:54.279Z,3.80
2024-04-30T06:31:21.550Z,4.43
2024-04-30T06:33:51.454Z,3.53
2024-04-30T06:36:18.686Z,3.53
2024-04-30T06:38:48.941Z,3.87
2024-04-30T06:41:16.152Z,3.87
2024-04-30T06:43:45.992Z,3.63
2024-04-30T06:46:15.883Z,3.70
2024-04-30T06:48:45.818Z,3.33
2024-04-30T06:51:15.630Z,3.47
2024-04-30T06:53:45.412Z,3.57
2024-04-30T06:56:12.608Z,4.00
2024-04-30T06:58:42.422Z,3.80
2024-04-30T07:01:09.577Z,3.40
2024-04-30T07:03:41.992Z,3.60
2024-04-30T07:06:09.422Z,4.03
2024-04-30T07:08:39.188Z,3.83
2024-04-30T07:11:06.427Z,3.77
2024-04-30T07:13:36.299Z,3.60
2024-04-30T07:16:03.734Z,3.87
2024-04-30T07:18:33.594Z,3.60
2024-04-30T07:21:03.622Z,3.40
2024-04-30T07:23:33.553Z,3.23
2024-04-30T07:26:01.037Z,3.70
2024-04-30T07:28:30.880Z,3.63
2024-04-30T07:30:58.099Z,3.40
2024-04-30T07:33:27.819Z,3.70
2024-04-30T07:35:54.960Z,3.33
2024-04-30T07:38:27.540Z,3.37
2024-04-30T07:40:55.863Z,3.50
2024-04-30T07:43:25.926Z,3.30
2024-04-30T07:45:53.039Z,3.43
2024-04-30T07:48:23.141Z,3.33
2024-04-30T07:50:50.344Z,9.10
2024-04-30T07:53:20.357Z,3.30
2024-04-30T07:55:50.241Z,3.00
2024-04-30T07:58:20.073Z,3.47
2024-04-30T08:00:47.295Z,3.03
2024-04-30T08:03:17.251Z,3.00
2024-04-30T08:05:44.504Z,3.33
2024-04-30T08:08:14.651Z,3.63
2024-04-30T08:10:42.026Z,3.00
2024-04-30T08:13:14.555Z,2.90
2024-04-30T08:15:41.955Z,3.20
2024-04-30T08:18:13.697Z,2.78
2024-04-30T08:20:43.508Z,3.35
2024-04-30T08:23:10.655Z,3.03
2024-04-30T08:25:40.544Z,3.40
2024-04-30T08:28:11.886Z,2.58
2024-04-30T08:30:42.117Z,3.42
2024-04-30T08:33:09.784Z,3.03
2024-04-30T08:35:39.619Z,2.50
2024-04-30T08:38:07.856Z,2.90
2024-04-30T08:40:37.877Z,2.90
2024-04-30T08:43:05.406Z,2.83
2024-04-30T08:45:37.882Z,2.60
2024-04-30T08:48:05.562Z,2.85
2024-04-30T08:50:35.452Z,2.50
2024-04-30T08:53:03.106Z,2.92
2024-04-30T08:55:33.131Z,2.78
2024-04-30T08:58:00.362Z,2.35
2024-04-30T09:00:30.113Z,2.40
2024-04-30T09:03:02.772Z,2.80
2024-04-30T09:05:33.280Z,2.50
2024-04-30T09:08:01.767Z,2.72
2024-04-30T09:10:31.637Z,3.10
2024-04-30T09:12:58.814Z,2.42
2024-04-30T09:15:28.694Z,2.47
2024-04-30T09:18:08.727Z,2.80
2024-04-30T09:20:47.609Z,2.63
2024-04-30T09:23:24.876Z,2.00
2024-04-30T09:25:54.615Z,2.00
2024-04-30T09:28:22.146Z,2.33
2024-04-30T09:31:01.430Z,2.10
2024-04-30T09:33:34.138Z,2.45
2024-04-30T09:36:06.394Z,2.55
2024-04-30T09:38:40.278Z,2.63
2024-04-30T09:41:10.623Z,2.47
2024-04-30T09:43:40.537Z,2.65
2024-04-30T09:46:08.364Z,2.45
2024-04-30T09:48:40.814Z,2.40
2024-04-30T09:51:08.262Z,2.53
2024-04-30T09:53:38.252Z,2.30
2024-04-30T09:56:09.647Z,2.45
2024-04-30T09:58:40.559Z,2.30
2024-04-30T10:01:10.240Z,2.30
2024-04-30T10:03:42.770Z,2.10
2024-04-30T10:06:10.462Z,1.90
2024-04-30T10:08:40.294Z,2.08
2024-04-30T10:11:07.693Z,2.15
2024-04-30T10:13:37.615Z,2.08
2024-04-30T10:16:13.505Z,2.40
2024-04-30T10:18:45.895Z,2.35
2024-04-30T10:21:13.264Z,2.40
2024-04-30T10:23:44.118Z,1.92
2024-04-30T10:26:11.383Z,2.17
2024-04-30T10:28:41.482Z,2.17
2024-04-30T10:31:09.908Z,2.17
2024-04-30T10:33:39.832Z,2.50
2024-04-30T10:36:11.265Z,2.22
2024-04-30T10:38:42.425Z,2.63
2024-04-30T10:41:12.474Z,2.25
2024-04-30T10:43:39.874Z,2.30
2024-04-30T10:46:14.034Z,2.13
2024-04-30T10:48:50.914Z,2.20
2024-04-30T10:51:23.841Z,2.30
2024-04-30T10:53:51.263Z,2.15
2024-04-30T10:56:21.070Z,2.03
2024-04-30T10:58:54.591Z,2.60
2024-04-30T11:01:25.440Z,2.10
2024-04-30T11:03:52.823Z,2.30
2024-04-30T11:06:25.184Z,2.38
2024-04-30T11:08:52.387Z,3.08
2024-04-30T11:11:43.534Z,2.47
2024-04-30T11:14:10.896Z,2.63
2024-04-30T11:16:40.645Z,2.90
2024-04-30T11:19:09.313Z,3.00
2024-04-30T11:21:42.846Z,2.50
2024-04-30T11:24:10.709Z,3.00
2024-04-30T11:26:40.509Z,2.80
2024-04-30T11:29:22.941Z,2.90
2024-04-30T11:31:57.408Z,3.20
2024-04-30T11:34:24.675Z,2.60
2024-04-30T11:36:57.069Z,2.80
2024-04-30T11:39:24.243Z,2.83
2024-04-30T11:42:01.811Z,3.00
2024-04-30T11:44:40.239Z,2.60
2024-04-30T11:47:10.198Z,2.90
2024-04-30T11:49:37.579Z,2.78
2024-04-30T11:52:10.178Z,2.70
2024-04-30T11:54:37.654Z,2.92
2024-04-30T11:57:08.242Z,3.00
2024-04-30T11:59:38.681Z,3.10
2024-04-30T12:02:05.941Z,2.90
2024-04-30T12:04:36.002Z,2.85
2024-04-30T12:07:03.260Z,2.90
2024-04-30T12:09:35.753Z,2.92
2024-04-30T12:12:02.896Z,2.78
2024-04-30T12:14:32.720Z,2.70
2024-04-30T12:16:59.961Z,2.75
2024-04-30T12:19:29.733Z,2.85
2024-04-30T12:21:56.914Z,2.40
2024-04-30T12:24:26.650Z,2.40
2024-04-30T12:26:57.877Z,2.30
2024-04-30T12:29:27.663Z,2.20
2024-04-30T12:31:54.836Z,2.42
2024-04-30T12:34:24.652Z,2.63
2024-04-30T12:36:51.797Z,2.47
2024-04-30T12:39:21.543Z,2.80
2024-04-30T12:41:49.051Z,2.70
2024-04-30T12:44:21.409Z,3.25
2024-04-30T12:46:50.173Z,2.83
2024-04-30T12:49:20.055Z,2.67
2024-04-30T12:51:47.226Z,2.38
2024-04-30T12:54:16.997Z,2.90
2024-04-30T12:56:45.203Z,2.95
2024-04-30T12:59:16.797Z,3.03
2024-04-30T13:01:46.676Z,2.47
2024-04-30T13:04:16.507Z,2.55
2024-04-30T13:06:43.674Z,2.25
2024-04-30T13:09:13.434Z,2.83
2024-04-30T13:11:40.685Z,2.40
2024-04-30T13:14:10.446Z,2.47
2024-04-30T13:16:40.913Z,2.50
2024-04-30T13:19:13.428Z,2.50
2024-04-30T13:21:40.626Z,2.55
2024-04-30T13:24:13.605Z,2.45
2024-04-30T13:26:40.755Z,2.22
2024-04-30T13:29:10.570Z,2.35
2024-04-30T13:31:38.187Z,2.40
2024-04-30T13:34:07.957Z,2.63
2024-04-30T13:36:37.743Z,2.75
2024-04-30T13:39:07.682Z,2.63
2024-04-30T13:41:37.497Z,2.53
2024-04-30T13:44:06.080Z,2.67
2024-04-30T13:46:35.830Z,2.85
2024-04-30T13:49:03.045Z,2.50
2024-04-30T13:51:32.766Z,2.40
2024-04-30T13:54:02.492Z,2.40
2024-04-30T13:56:32.207Z,2.70
2024-04-30T13:58:59.369Z,2.75
2024-04-30T14:01:29.134Z,2.67
2024-04-30T14:03:56.327Z,2.45
2024-04-30T14:06:26.087Z,2.55
2024-04-30T14:08:53.221Z,2.78
2024-04-30T14:11:25.639Z,2.72
2024-04-30T14:13:52.929Z,2.72
2024-04-30T14:16:22.769Z,2.30
2024-04-30T14:18:50.062Z,2.72
2024-04-30T14:21:19.772Z,2.55
2024-04-30T14:23:46.918Z,2.60
2024-04-30T14:26:20.801Z,2.60
2024-04-30T14:28:50.581Z,2.40
2024-04-30T14:31:22.384Z,2.30
2024-04-30T14:33:51.549Z,2.80
2024-04-30T14:36:39.347Z,2.25
2024-04-30T14:39:11.612Z,2.33
2024-04-30T14:41:38.901Z,2.60
2024-04-30T14:44:12.213Z,2.88
2024-04-30T14:46:39.493Z,2.22
2024-04-30T14:49:09.399Z,2.40
2024-04-30T14:51:36.960Z,2.22
2024-04-30T14:54:07.010Z,3.00
2024-04-30T14:56:34.444Z,2.88
2024-04-30T14:59:04.523Z,2.50
2024-04-30T15:01:34.325Z,2.60
2024-04-30T15:04:04.335Z,2.50
2024-04-30T15:06:31.573Z,2.50
2024-04-30T15:09:01.312Z,2.38
2024-04-30T15:11:28.421Z,2.38
2024-04-30T15:13:58.779Z,2.60
2024-04-30T15:16:25.978Z,2.33
2024-04-30T15:18:58.515Z,2.47
2024-04-30T15:21:25.655Z,2.72
2024-04-30T15:23:55.349Z,2.65
2024-04-30T15:26:22.549Z,2.38
2024-04-30T15:28:53.486Z,2.85
2024-04-30T15:31:21.029Z,2.88
2024-04-30T15:33:51.033Z,2.30
2024-04-30T15:36:20.920Z,2.25
2024-04-30T15:38:50.648Z,2.30
2024-04-30T15:41:21.213Z,2.72
2024-04-30T15:43:51.321Z,2.75
2024-04-30T15:46:18.615Z,2.53
2024-04-30T15:48:50.604Z,2.60
2024-04-30T15:51:20.808Z,2.47
2024-04-30T15:53:50.580Z,2.58
2024-04-30T15:56:19.650Z,2.67
2024-04-30T15:58:51.996Z,2.40
2024-04-30T16:01:19.390Z,2.35
2024-04-30T16:03:50.030Z,2.95
2024-04-30T16:06:17.180Z,3.28
2024-04-30T16:08:49.597Z,2.75
2024-04-30T16:11:20.721Z,2.53
2024-04-30T16:13:51.480Z,2.60
2024-04-30T16:16:19.074Z,2.13
2024-04-30T16:18:49.011Z,2.50
2024-04-30T16:21:16.358Z,2.78
2024-04-30T16:23:49.539Z,2.55
2024-04-30T16:26:16.697Z,2.50
2024-04-30T16:28:46.522Z,2.50
2024-04-30T16:31:15.399Z,2.47
2024-04-30T16:33:45.703Z,2.67
2024-04-30T16:36:18.653Z,2.13
2024-04-30T16:38:51.506Z,2.45
2024-04-30T16:41:18.751Z,2.20
2024-04-30T16:43:48.450Z,2.40
2024-04-30T16:46:15.584Z,2.25
2024-04-30T16:48:45.752Z,2.78
2024-04-30T16:51:13.235Z,2.50
2024-04-30T16:53:42.941Z,2.42
2024-04-30T16:56:13.203Z,2.08
2024-04-30T16:58:42.975Z,2.47
2024-04-30T17:01:12.840Z,2.83
2024-04-30T17:03:41.144Z,2.50
2024-04-30T17:06:12.329Z,2.60
2024-04-30T17:08:39.828Z,2.67
2024-04-30T17:11:10.844Z,2.53
2024-04-30T17:13:43.766Z,2.17
2024-04-30T17:16:19.625Z,2.40
2024-04-30T17:18:46.952Z,2.38
2024-04-30T17:21:19.346Z,2.42
2024-04-30T17:23:46.654Z,2.50
2024-04-30T17:26:23.339Z,2.30
2024-04-30T17:28:55.119Z,2.42
2024-04-30T17:31:25.135Z,2.55
2024-04-30T17:33:57.014Z,2.30
2024-04-30T17:36:27.129Z,2.45
2024-04-30T17:38:54.282Z,2.55
2024-04-30T17:41:27.689Z,2.40
2024-04-30T17:43:57.571Z,2.30
2024-04-30T17:46:28.044Z,2.53
2024-04-30T17:48:56.374Z,2.50
2024-04-30T17:51:26.596Z,2.85
2024-04-30T17:53:53.836Z,2.50
2024-04-30T17:56:23.633Z,2.50
2024-04-30T17:58:50.827Z,2.60
2024-04-30T18:01:23.428Z,2.30
2024-04-30T18:03:54.245Z,2.60
2024-04-30T18:06:24.177Z,2.55
2024-04-30T18:08:57.578Z,2.75
2024-04-30T18:11:28.321Z,2.85
2024-04-30T18:13:55.838Z,2.60
2024-04-30T18:16:28.888Z,2.63
2024-04-30T18:18:56.241Z,2.60
2024-04-30T18:21:34.074Z,2.75
2024-04-30T18:24:01.310Z,2.88
2024-04-30T18:26:31.044Z,2.65
2024-04-30T18:28:59.877Z,2.40
2024-04-30T18:31:32.335Z,2.53
2024-04-30T18:33:59.690Z,2.90
2024-04-30T18:36:29.510Z,2.78
2024-04-30T18:38:56.671Z,2.92
2024-04-30T18:41:31.088Z,2.65
2024-04-30T18:43:58.747Z,2.72
2024-04-30T18:46:28.552Z,2.85
2024-04-30T18:48:58.551Z,3.13
2024-04-30T18:51:28.614Z,3.40
2024-04-30T18:53:55.875Z,3.05
2024-04-30T18:56:26.683Z,3.40
2024-04-30T18:58:53.807Z,3.15
2024-04-30T19:01:24.180Z,3.03
2024-04-30T19:03:53.399Z,2.95
2024-04-30T19:06:26.007Z,3.08
2024-04-30T19:08:53.210Z,2.80
2024-04-30T19:11:23.253Z,2.58
2024-04-30T19:13:50.514Z,2.75
2024-04-30T19:16:20.221Z,2.88
2024-04-30T19:18:47.588Z,3.03
2024-04-30T19:21:18.538Z,2.72
2024-04-30T19:23:51.122Z,2.92
2024-04-30T19:26:18.345Z,3.55
2024-04-30T19:28:48.616Z,3.15
2024-04-30T19:31:16.477Z,2.88
2024-04-30T19:33:46.271Z,3.22
2024-04-30T19:36:17.956Z,3.20
2024-04-30T19:38:50.476Z,3.10
2024-04-30T19:41:17.742Z,3.08
2024-04-30T19:43:47.477Z,3.67
2024-04-30T19:46:16.506Z,4.07
2024-04-30T19:48:46.994Z,3.78
2024-04-30T19:51:16.906Z,3.60
2024-04-30T19:53:44.804Z,3.43
2024-04-30T19:56:17.151Z,3.53
2024-04-30T19:58:48.209Z,3.67
2024-04-30T20:01:23.185Z,3.27
2024-04-30T20:03:50.619Z,4.00
2024-04-30T20:06:20.617Z,3.50
2024-04-30T20:08:48.245Z,4.07
2024-04-30T20:11:25.712Z,3.63
2024-04-30T20:13:53.655Z,4.13
2024-04-30T20:16:25.153Z,3.83
2024-04-30T20:18:52.691Z,4.73
2024-04-30T20:21:22.771Z,4.63
2024-04-30T20:23:50.639Z,3.87
2024-04-30T20:26:23.053Z,4.23
2024-04-30T20:28:50.209Z,4.27
2024-04-30T20:31:20.111Z,3.90
2024-04-30T20:33:49.959Z,4.03
2024-04-30T20:36:17.178Z,4.37
2024-04-30T20:38:46.910Z,4.03
2024-04-30T20:41:14.377Z,3.97
2024-04-30T20:43:46.762Z,4.47
2024-04-30T20:46:16.481Z,4.27
2024-04-30T20:48:43.848Z,4.47
2024-04-30T20:51:13.721Z,4.40
2024-04-30T20:53:41.080Z,4.50
2024-04-30T20:56:11.405Z,4.43
2024-04-30T20:58:39.998Z,4.57
2024-04-30T21:01:16.661Z,4.23
2024-04-30T21:03:44.188Z,4.30
2024-04-30T21:06:13.991Z,3.83
2024-04-30T21:08:41.145Z,4.10
2024-04-30T21:11:15.064Z,4.23
2024-04-30T21:13:42.308Z,4.33
2024-04-30T21:16:14.631Z,5.60
2024-04-30T21:18:41.933Z,4.50
2024-04-30T21:21:11.789Z,4.40
2024-04-30T21:23:42.713Z,3.77
2024-04-30T21:26:13.182Z,4.10
2024-04-30T21:28:40.934Z,4.27
2024-04-30T21:31:10.687Z,4.47
2024-04-30T21:33:44.155Z,4.63
2024-04-30T21:36:14.572Z,4.77
2024-04-30T21:38:41.690Z,4.80
2024-04-30T21:41:11.514Z,4.60
2024-04-30T21:43:38.667Z,4.17
2024-04-30T21:46:08.857Z,4.60
2024-04-30T21:48:38.948Z,4.40
2024-04-30T21:51:11.472Z,4.93
2024-04-30T21:53:39.534Z,5.27
2024-04-30T21:56:09.809Z,5.30
2024-04-30T21:58:36.949Z,4.67
2024-04-30T22:01:09.162Z,4.60
2024-04-30T22:03:38.035Z,4.60
2024-04-30T22:06:08.412Z,4.27
2024-04-30T22:08:41.690Z,4.53
2024-04-30T22:11:08.840Z,4.10
2024-04-30T22:13:38.682Z,4.93
2024-04-30T22:16:07.184Z,4.67
2024-04-30T22:18:37.077Z,4.77
2024-04-30T22:21:10.612Z,4.73
2024-04-30T22:23:43.004Z,4.70
2024-04-30T22:26:10.120Z,4.60
2024-04-30T22:28:39.894Z,5.23
2024-04-30T22:31:07.214Z,5.50
2024-04-30T22:33:37.110Z,7.00
2024-04-30T22:36:04.909Z,6.97
2024-04-30T22:38:34.612Z,6.43
2024-04-30T22:41:04.631Z,6.40
2024-04-30T22:43:34.337Z,6.37
2024-04-30T22:46:01.596Z,6.10
2024-04-30T22:48:31.541Z,5.43
2024-04-30T22:50:58.979Z,5.83
2024-04-30T22:53:30.611Z,5.40
2024-04-30T22:55:59.787Z,4.67
2024-04-30T22:58:32.073Z,4.60
2024-04-30T23:00:59.324Z,5.03
2024-04-30T23:03:29.207Z,4.70
2024-04-30T23:05:56.341Z,5.10
2024-04-30T23:08:26.029Z,4.63
2024-04-30T23:10:53.885Z,4.80
2024-04-30T23:13:23.626Z,4.97
2024-04-30T23:15:53.460Z,5.00
2024-04-30T23:18:23.369Z,5.00
2024-04-30T23:20:50.659Z,4.60
2024-04-30T23:23:20.351Z,5.10
2024-04-30T23:25:47.715Z,4.93
2024-04-30T23:28:17.417Z,5.00
2024-04-30T23:30:44.631Z,4.77
2024-04-30T23:33:16.927Z,4.67
2024-04-30T23:35:44.101Z,4.77
2024-04-30T23:38:13.788Z,5.33
2024-04-30T23:40:40.917Z,5.47
2024-04-30T23:43:10.682Z,4.30
2024-04-30T23:45:40.532Z,4.83
2024-04-30T23:48:08.519Z,5.10
2024-04-30T23:50:40.896Z,5.07
2024-04-30T23:53:08.005Z,4.63
2024-04-30T23:55:37.745Z,4.53
2024-04-30T23:58:05.230Z,4.60
